Aérodrome :
LOGIN :

S'inscrire | Disclaimer

   EN    FR    IT 

 










Légende :    VFR   VFR Marginal   IFR   IFR Intensif   IFR Très Intensif
Visi : 
Plafond : 
>= 8 km
>= 3000ft
5 à 8 km
1000 à 3000 ft
1500m à 5 km
500 à 1000 ft
800 à 1500m
200 à 500 ft
< 800m
< 200 ft
Symboles :   Orages  Brouillard  Fortes neiges  Fortes précipitations  Vent > 20 kt
SIGMETs :   Divers  Orages  Givrage  Turbulence  Onde Orograph.  Cendres Volcan.






- Altitude de l'aérodrome : 622 ft
- Code IATA : BRS


EGGD - Bristol Int.

DERNIER METAR :
  • 261720Z AUTO 25013KT 9999 //////CB 04/00 Q1008

METARs EXPIRÉS :
  • 261650Z AUTO 26011KT 9999 NCD 05/01 Q1008
  • 261620Z AUTO 26015KT 9999 FEW011/// SCT025/// 05/01 Q1009
  • 261550Z 26015KT 9999 -SHRA FEW023 05/00 Q1009
  • 261520Z AUTO 26016KT 9999 FEW030/// //////CB 06/01 Q1008
  • 261450Z AUTO 29015KT 250V310 9999 SCT030 BKN044 07/00 Q1008

TAF TAF EGGD
Valide du 26 à 18h jusqu'au 27 à 18h UTC


261700Z 2618/2718 27012KT 9999 SCT030
BECMG 2618/2621 21010KT
BECMG 2700/2703 10010KT 6000 RA FEW002 BKN006
TEMPO 2700/2703 2000 RADZ BR BKN002
BECMG 2703/2706 04008KT 2000 RADZ BR BKN002
TEMPO 2703/2709 0200 RASN FG BKN000
BECMG 2709/2712 32014KT 9999 NSW SCT030
TEMPO 2712/2716 33017G27KT
ATIS : +44 1275 473 666



MET'MAP, la Météo Aéronautique d'un coup d'oeil ! - Copyright ORBIFLY Décembre 2007 - Disclaimer

ORBIFLY MET'MAP TEAM :

Programmation & Développement : Alexandra Zaïnal
Sur une idée originale de : Baudouin d'Aumeries
Assistance à la programmation : Marc-Olivier Méhu
Soutien technique & logistique : Manuel Goepfert

Contact : metmap@orbifly.com




SOURCES & CREDITS :

   NOAA